Data for 09/29/2018

Time Sea-Level Adjusted Pressure Absolute Pressure Temperature Relative Humidity Dew Point   
(mb) (inHg) (mb) (inHg) (C) (F) (%) (C) (F)
00:05 1017 30.03 846 24.98 1.8 35.3 84 -0.6 30.9
00:10 1017 30.03 846 24.98 1.8 35.2 84 -0.6 30.9
00:15 1017 30.03 846 24.98 1.8 35.2 84 -0.6 30.8
00:20 1017 30.03 846 24.98 1.8 35.2 84 -0.7 30.7
00:25 1017 30.03 846 24.98 1.7 35.1 83 -0.8 30.6
00:30 1017 30.03 846 24.98 1.7 35.1 83 -0.9 30.4
00:35 1017 30.03 846 24.98 1.6 35 83 -0.9 30.4
00:40 1017 30.03 846 24.98 1.6 34.8 83 -0.9 30.3
00:45 1017 30.03 846 24.98 1.5 34.8 83 -1 30.2
00:50 1017 30.03 846 24.98 1.6 34.8 83 -1 30.2
00:55 1017 30.03 846 24.98 1.6 34.8 83 -1 30.3
01:00 1017 30.03 846 24.98 1.6 34.8 83 -1 30.2
01:05 1017 30.03 846 24.98 1.6 34.8 83 -1 30.2
01:10 1017 30.03 846 24.98 1.5 34.7 83 -1 30.1
01:15 1017 30.03 846 24.98 1.5 34.7 83 -1 30.2
01:20 1017 30.03 846 24.98 1.5 34.7 84 -1 30.3
01:25 1017 30.03 846 24.98 1.5 34.7 84 -1 30.2
01:30 1017 30.03 846 24.98 1.5 34.7 84 -0.9 30.3
01:35 1017 30.03 846 24.98 1.5 34.8 84 -0.9 30.3
01:40 1017 30.03 846 24.98 1.6 34.8 84 -0.9 30.3
01:45 1017 30.03 846 24.98 1.6 34.8 84 -0.9 30.4
01:50 1017 30.03 846 24.98 1.6 34.8 84 -0.9 30.4
01:55 1017 30.03 846 24.98 1.6 34.8 84 -0.9 30.4
02:00 1017 30.03 846 24.98 1.6 34.9 84 -0.9 30.4
02:05 1017 30.03 846 24.98 1.6 34.9 83 -1 30.3
02:10 1017 30.03 846 24.98 1.6 34.8 83 -1 30.2
02:15 1017 30.03 846 24.98 1.6 34.9 83 -1 30.1
02:20 1017 30.03 846 24.98 1.6 34.9 83 -1 30.1
02:25 1017 30.03 846 24.98 1.6 34.9 83 -1 30.2
02:30 1017 30.03 846 24.98 1.6 35 82 -1 30.1
02:35 1017 30.03 846 24.98 1.6 34.9 83 -1 30.2
02:40 1017 30.03 846 24.98 1.7 35 83 -1 30.3
02:45 1017 30.03 846 24.98 1.7 35 82 -1 30.2
02:50 1017 30.03 846 24.98 1.7 35.1 83 -0.9 30.3
02:55 1017 30.03 846 24.98 1.7 35 82 -1 30.2
03:00 1017 30.03 846 24.98 1.7 35 83 -1 30.2
03:05 1017 30.03 846 24.98 1.6 34.9 82 -1.1 30.1
03:10 1017 30.03 846 24.98 1.6 35 82 -1.1 30
03:15 1017 30.03 846 24.98 1.7 35 82 -1.1 30
03:20 1017 30.03 846 24.98 1.7 35.1 82 -1.1 30.1
03:25 1017 30.03 846 24.98 1.7 35.1 82 -1.1 30.1
03:30 1017 30.03 846 24.98 1.7 35.1 82 -1.1 30.1
03:35 1017 30.03 846 24.98 1.8 35.2 81 -1.1 30
03:40 1017 30.03 846 24.98 1.7 35.1 81 -1.1 29.9
03:45 1017 30.03 847 25.01 1.7 35.1 81 -1.2 29.8
03:50 1017 30.03 847 25.01 1.7 35.1 81 -1.1 30
03:55 1017 30.03 847 25.01 1.8 35.3 81 -1.1 30
04:00 1017 30.03 847 25.01 1.8 35.3 81 -1.1 30.1
04:05 1017 30.03 847 25.01 1.8 35.2 81 -1.1 30
04:10 1017 30.03 847 25.01 1.8 35.3 81 -1.1 29.9
04:15 1017 30.03 847 25.01 1.9 35.3 80 -1.2 29.9
04:20 1017 30.03 847 25.01 1.9 35.3 80 -1.2 29.9
04:25 1017 30.03 847 25.01 1.9 35.4 80 -1.2 29.9
04:30 1018 30.06 847 25.01 1.9 35.4 80 -1.2 29.9
04:35 1018 30.06 847 25.01 1.9 35.5 80 -1.1 30
04:40 1018 30.06 847 25.01 2 35.6 80 -1.1 30
04:45 1018 30.06 847 25.01 2 35.6 80 -1.1 30
04:50 1018 30.06 847 25.01 2.1 35.7 79 -1.1 30
04:55 1018 30.06 847 25.01 2.1 35.7 79 -1.1 30
05:00 1018 30.06 847 25.01 2.1 35.7 79 -1.1 29.9
05:05 1018 30.06 847 25.01 2.1 35.7 79 -1.1 29.9
05:10 1018 30.06 847 25.01 2.1 35.7 79 -1.1 30
05:15 1018 30.06 847 25.01 2 35.6 79 -1.2 29.9
05:20 1018 30.06 847 25.01 2 35.5 80 -1.2 29.8
05:25 1018 30.06 847 25.01 1.9 35.5 80 -1.1 30
05:30 1018 30.06 847 25.01 1.9 35.4 80 -1.2 29.9
05:35 1018 30.06 847 25.01 1.8 35.2 81 -1.2 29.8
05:40 1018 30.06 847 25.01 1.8 35.2 81 -1.2 29.8
05:45 1018 30.06 847 25.01 1.7 35.1 81 -1.2 29.8
05:50 1018 30.06 847 25.01 1.7 35 81 -1.2 29.8
05:55 1018 30.06 847 25.01 1.7 35 81 -1.3 29.7
06:00 1018 30.06 847 25.01 1.7 35 81 -1.3 29.7
06:05 1018 30.06 847 25.01 1.7 35 81 -1.2 29.8
06:10 1018 30.06 847 25.01 1.7 35.1 81 -1.2 29.9
06:15 1018 30.06 847 25.01 1.8 35.3 81 -1.1 30
06:20 1018 30.06 847 25.01 1.9 35.4 81 -1.1 30
06:25 1018 30.06 847 25.01 2 35.6 80 -1.1 30.1
06:30 1018 30.06 847 25.01 2.1 35.8 80 -1 30.3
06:35 1018 30.06 847 25.01 2.1 35.8 80 -1 30.3
06:40 1018 30.06 847 25.01 2.1 35.8 80 -1 30.2
06:45 1018 30.06 847 25.01 2.1 35.9 80 -0.9 30.3
06:50 1018 30.06 847 25.01 2.2 35.9 80 -1 30.3
06:55 1018 30.06 847 25.01 2.2 35.9 79 -1 30.2
07:00 1018 30.06 847 25.01 2.2 35.9 80 -1 30.2
07:05 1018 30.06 847 25.01 2.2 36 79 -0.9 30.3
07:10 1018 30.06 847 25.01 2.3 36.2 79 -0.9 30.4
07:15 1018 30.06 847 25.01 2.4 36.2 79 -1 30.2
07:20 1018 30.06 847 25.01 2.4 36.3 79 -1 30.3
07:25 1018 30.06 847 25.01 2.5 36.4 78 -0.9 30.3
07:30 1018 30.06 847 25.01 2.5 36.5 79 -0.9 30.4
07:35 1018 30.06 847 25.01 2.4 36.4 80 -0.7 30.7
07:40 1018 30.06 848 25.04 2.4 36.3 79 -0.9 30.5
07:45 1018 30.06 848 25.04 2.5 36.5 78 -0.9 30.3
07:50 1018 30.06 848 25.04 2.5 36.5 78 -0.9 30.4
07:55 1018 30.06 848 25.04 2.5 36.6 79 -0.8 30.6
08:00 1018 30.06 848 25.04 2.6 36.6 78 -0.8 30.5
08:05 1018 30.06 848 25.04 2.7 36.9 77 -0.9 30.4
08:10 1018 30.06 848 25.04 2.9 37.2 78 -0.6 30.9
08:15 1018 30.06 848 25.04 3 37.3 77 -0.7 30.8
08:20 1018 30.06 848 25.04 3 37.5 77 -0.7 30.8
08:25 1018 30.06 848 25.04 3.3 37.9 75 -0.7 30.8
08:30 1019 30.09 848 25.04 3.5 38.3 75 -0.6 30.9
08:35 1019 30.09 848 25.04 3.6 38.5 74 -0.6 31
08:40 1019 30.09 848 25.04 3.8 38.8 74 -0.5 31.2
08:45 1019 30.09 848 25.04 3.8 38.9 74 -0.3 31.5
08:50 1019 30.09 848 25.04 3.9 39 75 -0.2 31.6
08:55 1019 30.09 848 25.04 3.9 39 75 -0.1 31.7
09:00 1019 30.09 848 25.04 3.9 39 75 -0.1 31.8
09:05 1019 30.09 848 25.04 3.9 39 75 -0.2 31.6
09:10 1019 30.09 848 25.04 3.9 39 75 -0.2 31.7
09:15 1019 30.09 848 25.04 3.8 38.9 75 -0.2 31.7
09:20 1019 30.09 848 25.04 3.9 39 75 -0.1 31.8
09:25 1019 30.09 848 25.04 3.9 39 75 -0.2 31.7
09:30 1019 30.09 848 25.04 4 39.1 75 -0.1 31.8
09:35 1019 30.09 848 25.04 4.1 39.4 74 -0.1 31.8
09:40 1019 30.09 848 25.04 4.3 39.7 73 -0 31.9
09:45 1019 30.09 848 25.04 4.3 39.8 73 -0 31.9
09:50 1019 30.09 848 25.04 4.3 39.7 72 -0.2 31.6
09:55 1019 30.09 848 25.04 4.3 39.7 72 -0.3 31.4
10:00 1019 30.09 848 25.04 4.4 39.9 71 -0.4 31.3
10:05 1019 30.09 848 25.04 4.6 40.3 71 -0.2 31.6
10:10 1019 30.09 848 25.04 4.6 40.4 70 -0.3 31.5
10:15 1019 30.09 848 25.04 4.8 40.6 71 -0.1 31.8
10:20 1019 30.09 848 25.04 4.8 40.6 69 -0.4 31.3
10:25 1019 30.09 848 25.04 4.9 40.7 69 -0.4 31.4
10:30 1019 30.09 848 25.04 5 40.9 68 -0.4 31.2
10:35 1019 30.09 848 25.04 5.2 41.3 68 -0.2 31.7
10:40 1019 30.09 848 25.04 4.9 40.8 68 -0.4 31.3
10:45 1019 30.09 848 25.04 4.9 40.9 68 -0.4 31.3
10:50 1019 30.09 848 25.04 5.1 41.2 67 -0.5 31.2
10:55 1019 30.09 848 25.04 5.2 41.3 67 -0.4 31.3
11:00 1019 30.09 848 25.04 5.2 41.4 67 -0.3 31.4
11:05 1019 30.09 848 25.04 5.3 41.5 67 -0.4 31.3
11:10 1019 30.09 848 25.04 5.3 41.6 68 -0.2 31.7
11:15 1019 30.09 848 25.04 5.3 41.6 68 -0.1 31.8
11:20 1019 30.09 848 25.04 5.5 41.9 67 -0.1 31.8
11:25 1019 30.09 848 25.04 5.7 42.2 66 -0.1 31.9
11:30 1019 30.09 848 25.04 5.5 41.9 66 -0.2 31.6
11:35 1019 30.09 848 25.04 5.4 41.7 67 -0.2 31.6
11:40 1019 30.09 848 25.04 5.3 41.6 68 -0 32
11:45 1019 30.09 848 25.04 5.2 41.4 69 0 32.1
11:50 1019 30.09 848 25.04 5.3 41.6 68 -0.1 31.9
11:55 1019 30.09 848 25.04 5.3 41.5 70 0.2 32.3
12:00 1019 30.09 848 25.04 5.1 41.1 71 0.2 32.4
12:05 1019 30.09 848 25.04 5.1 41.1 71 0.2 32.3
12:10 1019 30.09 848 25.04 5.2 41.3 71 0.3 32.5
12:15 1019 30.09 848 25.04 5.2 41.3 70 0.2 32.4
12:20 1019 30.09 848 25.04 5.4 41.7 69 0.1 32.3
12:25 1019 30.09 848 25.04 5.6 42.1 69 0.3 32.5
12:30 1019 30.09 848 25.04 5.5 41.8 70 0.5 32.8
12:35 1019 30.09 848 25.04 5.3 41.5 71 0.4 32.7
12:40 1019 30.09 848 25.04 5.1 41.2 72 0.6 33
12:45 1019 30.09 848 25.04 5 41 72 0.3 32.6
12:50 1019 30.09 848 25.04 5.1 41.2 71 0.3 32.5
12:55 1019 30.09 848 25.04 5.3 41.5 71 0.4 32.8
13:00 1019 30.09 848 25.04 5.5 41.8 70 0.4 32.7
13:05 1019 30.09 848 25.04 5.3 41.6 71 0.4 32.8
13:10 1019 30.09 848 25.04 5.4 41.7 69 0.2 32.4
13:15 1019 30.09 848 25.04 5.5 42 68 0.2 32.3
13:20 1019 30.09 848 25.04 5.5 41.9 69 0.3 32.5
13:25 1019 30.09 848 25.04 5.6 42.1 68 0.2 32.4
13:30 1019 30.09 848 25.04 5.6 42.1 68 0.1 32.3
13:35 1019 30.09 848 25.04 5.9 42.6 67 0.2 32.3
13:40 1019 30.09 848 25.04 6.1 42.9 66 0.3 32.5
13:45 1019 30.09 848 25.04 6.2 43.2 66 0.3 32.5
13:50 1019 30.09 848 25.04 6 42.8 66 0.2 32.3
13:55 1019 30.09 848 25.04 5.9 42.6 67 0.3 32.5
14:00 1019 30.09 848 25.04 5.9 42.6 67 0.2 32.4
14:05 1019 30.09 848 25.04 5.7 42.2 67 0.1 32.1
14:10 1019 30.09 848 25.04 5.8 42.4 66 -0 32
14:15 1019 30.09 848 25.04 6.1 43 66 0.2 32.4
14:20 1019 30.09 848 25.04 6.1 43 67 0.5 32.9
14:25 1019 30.09 848 25.04 6 42.7 67 0.2 32.4
14:30 1019 30.09 848 25.04 6.2 43.1 66 0.4 32.7
14:35 1019 30.09 848 25.04 6 42.8 66 0.2 32.4
14:40 1019 30.09 848 25.04 6.1 42.9 68 0.5 33
14:45 1019 30.09 848 25.04 5.9 42.6 68 0.4 32.7
14:50 1019 30.09 848 25.04 5.9 42.5 67 0.3 32.5
14:55 1019 30.09 848 25.04 5.9 42.7 66 0.1 32.2
15:00 1019 30.09 848 25.04 5.9 42.6 67 0.2 32.3
15:05 1019 30.09 848 25.04 5.9 42.6 67 0.2 32.3
15:10 1019 30.09 848 25.04 5.8 42.5 68 0.5 32.9
15:15 1019 30.09 848 25.04 5.8 42.4 69 0.6 33.1
15:20 1019 30.09 848 25.04 5.5 42 71 0.8 33.4
15:25 1019 30.09 848 25.04 5.4 41.7 71 0.6 33.1
15:30 1019 30.09 849 25.07 5.4 41.7 71 0.6 33.1
15:35 1019 30.09 849 25.07 5.5 41.8 71 0.6 33.2
15:40 1019 30.09 849 25.07 5.4 41.7 71 0.6 33
15:45 1019 30.09 849 25.07 5.4 41.7 71 0.5 32.9
15:50 1019 30.09 849 25.07 5.4 41.7 70 0.4 32.7
15:55 1019 30.09 849 25.07 5.5 41.8 70 0.4 32.7
16:00 1019 30.09 849 25.07 5.5 41.9 70 0.5 32.9
16:05 1019 30.09 849 25.07 5.4 41.8 70 0.4 32.7
16:10 1019 30.09 849 25.07 5.5 41.9 70 0.4 32.8
16:15 1019 30.09 849 25.07 5.5 42 70 0.4 32.8
16:20 1019 30.09 849 25.07 5.5 41.9 70 0.4 32.7
16:25 1020 30.12 849 25.07 5.4 41.8 70 0.4 32.8
16:30 1020 30.12 849 25.07 5.3 41.6 71 0.6 33
16:35 1020 30.12 849 25.07 5.3 41.5 71 0.4 32.8
16:40 1020 30.12 849 25.07 5.3 41.5 71 0.5 32.9
16:45 1020 30.12 849 25.07 5.3 41.5 71 0.5 32.9
16:50 1020 30.12 849 25.07 5.2 41.4 72 0.6 33.1
16:55 1020 30.12 849 25.07 5.3 41.5 72 0.6 33.1
17:00 1020 30.12 849 25.07 5.2 41.4 72 0.6 33.1
17:05 1020 30.12 849 25.07 5.2 41.4 72 0.5 32.9
17:10 1020 30.12 849 25.07 5.1 41.2 73 0.6 33.1
17:15 1020 30.12 849 25.07 5 41 74 0.7 33.3
17:20 1020 30.12 849 25.07 4.9 40.8 75 0.9 33.6
17:25 1020 30.12 849 25.07 4.8 40.6 76 0.9 33.6
17:30 1020 30.12 849 25.07 4.6 40.3 77 0.9 33.6
17:35 1020 30.12 849 25.07 4.6 40.2 77 0.9 33.7
17:40 1020 30.12 849 25.07 4.4 40 78 0.9 33.6
17:45 1020 30.12 849 25.07 4.4 39.9 78 0.9 33.7
17:50 1020 30.12 849 25.07 4.3 39.8 79 1 33.8
17:55 1020 30.12 849 25.07 4.3 39.7 79 1 33.8
18:00 1020 30.12 849 25.07 4.2 39.5 80 1 33.8
18:05 1020 30.12 850 25.1 4.2 39.5 80 1 33.8
18:10 1020 30.12 850 25.1 4.1 39.3 80 1 33.8
18:15 1020 30.12 850 25.1 4 39.2 80 0.9 33.6
18:20 1020 30.12 850 25.1 4 39.2 80 0.8 33.5
18:25 1021 30.15 850 25.1 4 39.2 80 0.8 33.5
18:30 1020 30.12 850 25.1 3.9 39.1 80 0.8 33.5
18:35 1021 30.15 850 25.1 3.9 39 80 0.7 33.3
18:40 1021 30.15 850 25.1 3.8 38.8 81 0.8 33.4
18:45 1021 30.15 850 25.1 3.7 38.7 81 0.8 33.5
18:50 1021 30.15 850 25.1 3.6 38.5 81 0.8 33.4
18:55 1021 30.15 850 25.1 3.6 38.5 82 0.8 33.4
19:00 1021 30.15 850 25.1 3.5 38.4 82 0.7 33.3
19:05 1021 30.15 850 25.1 3.5 38.3 82 0.6 33.1
19:10 1021 30.15 850 25.1 3.5 38.2 81 0.6 33.1
19:15 1021 30.15 850 25.1 3.4 38.2 82 0.6 33.1
19:20 1021 30.15 850 25.1 3.4 38 82 0.6 33.1
19:25 1021 30.15 850 25.1 3.3 37.9 83 0.6 33.1
19:30 1021 30.15 850 25.1 3.2 37.8 82 0.5 32.9
19:35 1021 30.15 850 25.1 3.2 37.8 82 0.4 32.7
19:40 1021 30.15 850 25.1 3.2 37.8 80 0.1 32.2
19:45 1021 30.15 850 25.1 3.2 37.8 80 0.2 32.3
19:50 1021 30.15 850 25.1 3.2 37.7 80 0 32.1
19:55 1021 30.15 850 25.1 3.1 37.7 81 0.1 32.2
20:00 1021 30.15 850 25.1 3.1 37.6 80 -0 32
20:05 1021 30.15 850 25.1 3.1 37.5 80 -0 32
20:10 1021 30.15 850 25.1 3 37.5 80 -0.1 31.9
20:15 1021 30.15 850 25.1 3 37.4 79 -0.3 31.5
20:20 1021 30.15 850 25.1 3 37.4 79 -0.2 31.6
20:25 1021 30.15 850 25.1 3 37.4 79 -0.4 31.4
20:30 1021 30.15 850 25.1 3 37.3 79 -0.4 31.3
20:35 1021 30.15 850 25.1 2.9 37.3 79 -0.3 31.4
20:40 1021 30.15 850 25.1 2.9 37.2 79 -0.4 31.3
20:45 1021 30.15 850 25.1 2.9 37.1 79 -0.4 31.2
20:50 1021 30.15 850 25.1 2.8 37.1 79 -0.5 31.2
20:55 1021 30.15 850 25.1 2.8 37.1 78 -0.6 31
21:00 1021 30.15 850 25.1 2.9 37.1 78 -0.6 31
21:05 1021 30.15 850 25.1 2.8 37.1 77 -0.7 30.7
21:10 1021 30.15 850 25.1 2.8 37 78 -0.7 30.7
21:15 1021 30.15 850 25.1 2.7 36.9 78 -0.8 30.6
21:20 1021 30.15 850 25.1 2.7 36.9 78 -0.7 30.7
21:25 1021 30.15 850 25.1 2.6 36.7 79 -0.6 30.9
21:30 1021 30.15 850 25.1 2.5 36.6 80 -0.6 30.9
21:35 1021 30.15 850 25.1 2.5 36.5 80 -0.7 30.8
21:40 1021 30.15 850 25.1 2.4 36.3 81 -0.6 30.9
21:45 1021 30.15 850 25.1 2.3 36.1 81 -0.6 30.9
21:50 1021 30.15 850 25.1 2.2 36 81 -0.7 30.7
21:55 1021 30.15 850 25.1 2.2 36 81 -0.7 30.8
22:00 1021 30.15 850 25.1 2.1 35.8 81 -0.8 30.5
22:05 1021 30.15 850 25.1 2.2 36 79 -1 30.1
22:10 1021 30.15 850 25.1 2.4 36.2 78 -1.1 30
22:15 1021 30.15 850 25.1 2.4 36.3 76 -1.4 29.5
22:20 1021 30.15 850 25.1 2.5 36.4 76 -1.4 29.6
22:25 1021 30.15 850 25.1 2.5 36.4 75 -1.5 29.3
22:30 1021 30.15 850 25.1 2.5 36.5 75 -1.5 29.2
22:35 1021 30.15 850 25.1 2.4 36.4 76 -1.3 29.6
22:40 1021 30.15 850 25.1 2.3 36.1 77 -1.4 29.5
22:45 1021 30.15 850 25.1 2.2 36 76 -1.6 29.2
22:50 1021 30.15 850 25.1 2.2 35.9 75 -1.7 28.9
22:55 1021 30.15 850 25.1 2.2 36 74 -1.9 28.6
23:00 1021 30.15 850 25.1 2.2 36 74 -1.9 28.5
23:05 1021 30.15 850 25.1 2.2 35.9 74 -2 28.3
23:10 1021 30.15 850 25.1 2.1 35.9 75 -1.8 28.7
23:15 1021 30.15 850 25.1 2.1 35.8 74 -2 28.4
23:20 1021 30.15 850 25.1 2.1 35.9 73 -2.2 28
23:25 1021 30.15 850 25.1 2.1 35.9 75 -1.8 28.7
23:30 1021 30.15 850 25.1 2.1 35.7 75 -1.9 28.5
23:35 1021 30.15 850 25.1 2 35.7 76 -1.8 28.7
23:40 1021 30.15 850 25.1 2 35.7 75 -1.9 28.7
23:45 1021 30.15 850 25.1 2 35.6 76 -1.8 28.7
23:50 1021 30.15 850 25.1 2 35.5 76 -1.9 28.7
23:55 1021 30.15 850 25.1 2 35.5 76 -1.8 28.8
24:00 1021 30.15 850 25.1 2 35.5 76 -1.8 28.8